Time;durP1;ratioP1;P1;durP2;ratioP2;P2;SDS_P1;SDS_P2;PMS_P1;PMS_P2;Temp;Humidity;BMP_temperature;BMP_pressure;BME280_temperature;BME280_humidity;BME280_pressure;Samples;Min_cycle;Max_cycle;Signal;HPM_P1;HPM_P2
2021/08/29 00:01:40;;;;;;;2.13;1.70;;;22.50;58.90;;;;;;5100841;28;20188;-71
2021/08/29 00:04:17;;;;;;;3.33;1.87;;;22.60;59.00;;;;;;5110411;28;20827;-71
2021/08/29 00:06:47;;;;;;;2.47;1.77;;;22.60;59.00;;;;;;5095954;28;20204;-71
2021/08/29 00:09:18;;;;;;;2.73;2.03;;;22.50;58.90;;;;;;5109183;28;20193;-71
2021/08/29 00:11:49;;;;;;;2.57;1.80;;;22.50;58.90;;;;;;5103436;28;20207;-70
2021/08/29 00:14:17;;;;;;;2.20;2.00;;;22.50;58.90;;;;;;5105565;28;20266;-70
2021/08/29 00:16:48;;;;;;;2.83;1.83;;;22.50;58.90;;;;;;5098854;28;20200;-70
2021/08/29 00:19:18;;;;;;;2.87;1.97;;;22.50;58.90;;;;;;5107920;28;20208;-70
2021/08/29 00:21:50;;;;;;;2.10;1.67;;;22.50;59.00;;;;;;5106666;28;20653;-70
2021/08/29 00:24:21;;;;;;;2.37;1.83;;;22.50;58.90;;;;;;5082058;28;20239;-71
2021/08/29 00:26:52;;;;;;;3.50;2.10;;;22.50;58.90;;;;;;5107862;28;20204;-71
2021/08/29 00:29:21;;;;;;;2.43;1.90;;;22.50;58.90;;;;;;5098635;28;20198;-71
2021/08/29 00:31:52;;;;;;;1.90;1.70;;;22.50;58.90;;;;;;5106234;28;20257;-71
2021/08/29 00:34:25;;;;;;;2.27;1.70;;;22.50;58.90;;;;;;5094541;28;20240;-71
2021/08/29 00:36:54;;;;;;;2.00;1.80;;;22.50;58.90;;;;;;5091991;28;20634;-70
2021/08/29 00:39:25;;;;;;;2.17;1.90;;;22.40;58.90;;;;;;5098141;28;20220;-70
2021/08/29 00:41:55;;;;;;;2.80;1.73;;;22.40;58.90;;;;;;5101936;28;20268;-70
2021/08/29 00:44:26;;;;;;;2.03;1.73;;;22.50;58.90;;;;;;5100982;28;20220;-70
2021/08/29 00:46:56;;;;;;;2.53;1.83;;;22.40;58.90;;;;;;5111539;28;20201;-71
2021/08/29 00:49:27;;;;;;;2.10;1.90;;;22.50;58.90;;;;;;5112046;28;20197;-70
2021/08/29 00:52:03;;;;;;;2.07;1.70;;;22.50;58.90;;;;;;5107385;28;20204;-71
2021/08/29 00:54:38;;;;;;;2.20;1.80;;;22.50;58.80;;;;;;5108259;27;20207;-71
2021/08/29 00:57:10;;;;;;;1.80;1.70;;;22.40;58.80;;;;;;5075300;28;20261;-70
2021/08/29 00:59:42;;;;;;;1.83;1.67;;;22.50;58.90;;;;;;5105611;27;20200;-71
2021/08/29 01:02:14;;;;;;;2.90;1.80;;;22.50;58.90;;;;;;5064964;28;20208;-70
2021/08/29 01:05:17;;;;;;;2.20;1.80;;;22.40;58.80;;;;;;5087850;28;20236;-70
2021/08/29 01:08:09;;;;;;;2.83;1.83;;;22.50;58.90;;;;;;5092464;28;20219;-70
2021/08/29 01:11:04;;;;;;;2.10;1.87;;;22.40;58.80;;;;;;5100298;27;20197;-70
2021/08/29 01:13:45;;;;;;;2.33;1.80;;;22.40;58.80;;;;;;5092350;28;20514;-70
2021/08/29 01:16:20;;;;;;;2.00;1.80;;;22.40;58.80;;;;;;5098760;28;20710;-71
2021/08/29 01:18:58;;;;;;;3.13;2.00;;;22.40;58.90;;;;;;5081572;27;20212;-71
2021/08/29 01:21:34;;;;;;;1.80;1.70;;;22.40;58.90;;;;;;5123870;27;20227;-71
2021/08/29 01:24:32;;;;;;;1.93;1.70;;;22.40;58.90;;;;;;5066655;27;20239;-71
2021/08/29 01:27:29;;;;;;;1.93;1.70;;;22.40;58.80;;;;;;5102040;28;20215;-70
2021/08/29 01:30:00;;;;;;;1.70;1.60;;;22.40;58.80;;;;;;5110423;27;20259;-70
2021/08/29 01:32:28;;;;;;;2.10;1.60;;;22.40;58.90;;;;;;5089636;28;20216;-70
2021/08/29 01:34:57;;;;;;;1.70;1.60;;;22.40;58.90;;;;;;5093652;28;20195;-71
2021/08/29 01:37:31;;;;;;;2.00;1.67;;;22.40;58.90;;;;;;5092212;28;20496;-71
2021/08/29 01:40:07;;;;;;;2.20;1.60;;;22.40;58.90;;;;;;5098821;28;20197;-70
2021/08/29 01:42:45;;;;;;;2.20;1.93;;;22.40;58.80;;;;;;5106587;27;20657;-71
2021/08/29 01:45:20;;;;;;;2.00;1.80;;;22.40;58.90;;;;;;5094122;28;20255;-71
2021/08/29 01:47:48;;;;;;;1.93;1.70;;;22.40;58.80;;;;;;5084254;28;20627;-71
2021/08/29 01:50:34;;;;;;;1.83;1.70;;;22.40;58.90;;;;;;5080097;28;20212;-71
2021/08/29 01:53:04;;;;;;;1.60;1.50;;;22.40;58.80;;;;;;5087576;28;20201;-71
2021/08/29 01:55:32;;;;;;;2.27;1.57;;;22.30;58.80;;;;;;5088051;28;20209;-71
2021/08/29 01:58:00;;;;;;;1.80;1.70;;;22.40;58.90;;;;;;5100012;28;20201;-71
2021/08/29 02:00:41;;;;;;;2.47;1.63;;;22.40;58.80;;;;;;5085426;28;20226;-71
2021/08/29 02:03:18;;;;;;;1.80;1.67;;;22.40;58.90;;;;;;5108910;28;20192;-71
2021/08/29 02:05:58;;;;;;;2.17;1.80;;;22.30;58.80;;;;;;5107546;27;20200;-70
2021/08/29 02:08:28;;;;;;;1.90;1.70;;;22.40;58.90;;;;;;5088368;28;20189;-71
2021/08/29 02:11:01;;;;;;;1.77;1.43;;;22.40;58.90;;;;;;5109387;28;20197;-71
2021/08/29 02:13:40;;;;;;;1.60;1.50;;;22.30;59.50;;;;;;5077692;28;20197;-71
2021/08/29 02:16:24;;;;;;;2.17;1.80;;;22.40;58.90;;;;;;5086064;28;20200;-71
2021/08/29 02:19:18;;;;;;;2.10;1.90;;;22.30;58.80;;;;;;5100407;28;20222;-71
2021/08/29 02:21:45;;;;;;;1.40;1.30;;;22.30;58.80;;;;;;5082331;28;20201;-71
2021/08/29 02:24:13;;;;;;;3.37;1.50;;;22.30;58.90;;;;;;5096643;28;20212;-71
2021/08/29 02:26:43;;;;;;;1.60;1.50;;;22.30;58.80;;;;;;5099466;28;20205;-70
2021/08/29 02:29:15;;;;;;;2.07;1.60;;;22.30;58.80;;;;;;5100224;28;20193;-70
2021/08/29 02:31:51;;;;;;;3.30;1.63;;;22.40;58.90;;;;;;5101019;27;20189;-70
2021/08/29 02:34:18;;;;;;;1.73;1.60;;;22.40;58.90;;;;;;5107496;28;20228;-71
2021/08/29 02:36:50;;;;;;;2.53;1.47;;;22.30;58.90;;;;;;5094460;28;20210;-71
2021/08/29 02:39:21;;;;;;;1.70;1.50;;;22.40;58.80;;;;;;5087790;28;20204;-71
2021/08/29 02:41:51;;;;;;;3.20;1.53;;;22.30;58.80;;;;;;5082254;28;20543;-71
2021/08/29 02:44:26;;;;;;;2.00;1.60;;;22.40;58.80;;;;;;5095309;28;20201;-71
2021/08/29 02:46:59;;;;;;;1.80;1.40;;;22.30;58.80;;;;;;5110187;28;20195;-70
2021/08/29 02:49:27;;;;;;;1.70;1.60;;;22.30;58.80;;;;;;5055212;28;20643;-71
2021/08/29 02:51:57;;;;;;;2.20;1.40;;;22.30;58.80;;;;;;5077561;28;20402;-71
2021/08/29 02:54:28;;;;;;;2.00;1.80;;;22.30;58.80;;;;;;5088333;28;20228;-71
2021/08/29 02:57:14;;;;;;;2.03;1.40;;;22.30;58.80;;;;;;5102990;28;21693;-71
2021/08/29 02:59:46;;;;;;;1.93;1.47;;;22.30;58.80;;;;;;5058363;28;20283;-71
2021/08/29 03:02:20;;;;;;;1.83;1.60;;;22.30;58.80;;;;;;5109383;27;20208;-70
2021/08/29 03:04:57;;;;;;;1.63;1.53;;;22.30;58.80;;;;;;5110087;28;20569;-70
2021/08/29 03:07:27;;;;;;;1.80;1.50;;;22.30;58.80;;;;;;5103435;28;20192;-71
2021/08/29 03:09:57;;;;;;;2.10;1.63;;;22.30;58.80;;;;;;5106703;28;20200;-71
2021/08/29 03:12:28;;;;;;;1.60;1.50;;;22.30;58.80;;;;;;5105291;28;20379;-71
2021/08/29 03:14:58;;;;;;;2.23;1.63;;;22.30;58.80;;;;;;5094231;28;20692;-70
2021/08/29 03:17:28;;;;;;;1.70;1.60;;;22.30;58.80;;;;;;5088584;28;20208;-70
2021/08/29 03:19:59;;;;;;;3.17;1.90;;;22.30;58.80;;;;;;5107604;28;20200;-71
2021/08/29 03:22:30;;;;;;;2.00;1.77;;;22.30;58.80;;;;;;5089426;28;20617;-71
2021/08/29 03:25:01;;;;;;;2.70;1.53;;;22.30;58.80;;;;;;5102800;28;20248;-71
2021/08/29 03:27:47;;;;;;;1.87;1.40;;;22.30;58.90;;;;;;5107621;28;20198;-70
2021/08/29 03:30:17;;;;;;;2.30;1.70;;;22.30;58.80;;;;;;5108922;28;20196;-71
2021/08/29 03:32:47;;;;;;;1.63;1.50;;;22.30;58.80;;;;;;5091509;28;20315;-70
2021/08/29 03:35:17;;;;;;;1.87;1.30;;;22.30;58.90;;;;;;5107198;28;20199;-71
2021/08/29 03:37:48;;;;;;;1.57;1.40;;;22.20;58.80;;;;;;5091760;28;20688;-71
2021/08/29 03:40:21;;;;;;;1.60;1.47;;;22.30;58.80;;;;;;5106505;28;20201;-71
2021/08/29 03:42:50;;;;;;;2.60;1.53;;;22.30;58.90;;;;;;5088969;28;20220;-71
2021/08/29 03:45:33;;;;;;;3.23;1.77;;;22.20;58.80;;;;;;5101668;28;20666;-71
2021/08/29 03:48:05;;;;;;;1.60;1.47;;;22.30;58.90;;;;;;5103984;28;20196;-71
2021/08/29 03:50:37;;;;;;;2.73;1.57;;;22.20;58.80;;;;;;5103876;28;20196;-71
2021/08/29 03:53:08;;;;;;;2.63;1.70;;;22.30;58.90;;;;;;5092093;28;20578;-71
2021/08/29 03:55:38;;;;;;;3.53;2.03;;;22.30;58.90;;;;;;5084418;28;20200;-71
2021/08/29 03:58:14;;;;;;;1.73;1.60;;;22.20;58.80;;;;;;5081552;28;20235;-71
2021/08/29 04:00:57;;;;;;;2.63;1.90;;;22.30;58.90;;;;;;5095042;28;20641;-71
2021/08/29 04:03:31;;;;;;;1.63;1.50;;;22.30;59.50;;;;;;5109474;28;20253;-71
2021/08/29 04:06:04;;;;;;;2.07;1.30;;;22.20;58.80;;;;;;5091039;28;20217;-72
2021/08/29 04:08:44;;;;;;;3.83;1.60;;;22.20;58.80;;;;;;5084427;28;20253;-71
2021/08/29 04:11:12;;;;;;;1.70;1.50;;;22.20;58.80;;;;;;5084759;28;20201;-71
2021/08/29 04:13:46;;;;;;;1.83;1.60;;;22.20;58.80;;;;;;5092577;28;20860;-71
2021/08/29 04:16:17;;;;;;;1.50;1.40;;;22.30;58.90;;;;;;5092225;27;20200;-71
2021/08/29 04:18:48;;;;;;;1.80;1.50;;;22.20;58.80;;;;;;5090552;28;20198;-71
2021/08/29 04:21:30;;;;;;;1.60;1.50;;;22.20;58.80;;;;;;5085338;28;20218;-70
2021/08/29 04:24:02;;;;;;;2.10;1.73;;;22.20;58.80;;;;;;5076616;28;20206;-70
2021/08/29 04:26:46;;;;;;;2.57;1.70;;;22.20;58.80;;;;;;5097335;28;20208;-70
2021/08/29 04:29:18;;;;;;;1.80;1.43;;;22.20;58.80;;;;;;5109906;28;20222;-70
2021/08/29 04:31:51;;;;;;;2.07;1.70;;;22.20;58.80;;;;;;5108143;28;20207;-70
2021/08/29 04:34:23;;;;;;;1.87;1.37;;;22.20;58.80;;;;;;5112048;28;20231;-70
2021/08/29 04:37:00;;;;;;;2.83;1.50;;;22.20;58.80;;;;;;5109856;28;20224;-70
2021/08/29 04:39:32;;;;;;;1.73;1.57;;;22.20;58.80;;;;;;5106104;28;20606;-71
2021/08/29 04:41:59;;;;;;;3.53;1.80;;;22.20;58.80;;;;;;5109539;28;20192;-71
2021/08/29 04:44:38;;;;;;;1.70;1.60;;;22.20;58.90;;;;;;5107628;28;20251;-71
2021/08/29 04:47:09;;;;;;;4.03;1.83;;;22.20;58.90;;;;;;5108026;28;20193;-71
2021/08/29 04:49:41;;;;;;;1.90;1.60;;;22.20;58.90;;;;;;5108229;28;20196;-71
2021/08/29 04:52:11;;;;;;;2.00;1.60;;;22.20;58.90;;;;;;5108771;28;20211;-71
2021/08/29 04:54:43;;;;;;;2.07;1.73;;;22.20;58.90;;;;;;5102857;28;20208;-71
2021/08/29 04:57:14;;;;;;;2.43;1.70;;;22.20;58.80;;;;;;5112773;27;20204;-71
2021/08/29 04:59:45;;;;;;;2.63;1.60;;;22.20;58.90;;;;;;5112262;28;20204;-71
2021/08/29 05:02:16;;;;;;;1.83;1.70;;;22.20;58.90;;;;;;5109580;28;20204;-71
2021/08/29 05:04:47;;;;;;;2.00;1.70;;;22.20;58.90;;;;;;5108114;28;20216;-71
2021/08/29 05:07:19;;;;;;;2.93;1.83;;;22.20;58.90;;;;;;5078095;28;20654;-71
2021/08/29 05:09:51;;;;;;;1.93;1.40;;;22.20;58.90;;;;;;5105468;28;20189;-71
2021/08/29 05:12:20;;;;;;;2.10;1.50;;;22.20;58.90;;;;;;5078178;28;20192;-71
2021/08/29 05:14:50;;;;;;;2.70;1.90;;;22.20;58.90;;;;;;5088610;28;20210;-71
2021/08/29 05:17:19;;;;;;;1.77;1.67;;;22.20;58.90;;;;;;5092903;28;20234;-71
2021/08/29 05:19:50;;;;;;;3.37;1.83;;;22.20;58.90;;;;;;5107977;27;20477;-71
2021/08/29 05:22:20;;;;;;;2.40;1.80;;;22.20;58.90;;;;;;5112656;28;20196;-71
2021/08/29 05:24:49;;;;;;;1.97;1.70;;;22.20;58.90;;;;;;5104574;28;20208;-71
2021/08/29 05:27:19;;;;;;;2.33;1.90;;;22.20;59.00;;;;;;5101387;28;20219;-71
2021/08/29 05:29:51;;;;;;;2.93;1.80;;;22.20;59.00;;;;;;5108620;28;20588;-71
2021/08/29 05:32:23;;;;;;;3.57;2.13;;;22.20;59.00;;;;;;5085866;28;20200;-71
2021/08/29 05:34:55;;;;;;;1.93;1.67;;;22.20;58.90;;;;;;5110839;27;20223;-71
2021/08/29 05:37:28;;;;;;;2.00;1.77;;;22.20;58.90;;;;;;5093570;28;20273;-70
2021/08/29 05:39:59;;;;;;;2.03;1.80;;;22.20;59.60;;;;;;5109527;28;20196;-71
2021/08/29 05:42:29;;;;;;;3.00;1.90;;;22.20;58.90;;;;;;5088408;28;20204;-71
2021/08/29 05:45:01;;;;;;;2.90;2.00;;;22.20;58.90;;;;;;5109088;28;20219;-71
2021/08/29 05:47:29;;;;;;;2.70;2.30;;;22.30;59.00;;;;;;5107468;28;20604;-71
2021/08/29 05:49:59;;;;;;;3.47;2.10;;;22.20;59.00;;;;;;5085354;28;20192;-71
2021/08/29 05:52:29;;;;;;;2.90;2.10;;;22.20;59.00;;;;;;5086529;28;20302;-71
2021/08/29 05:55:00;;;;;;;3.60;2.50;;;22.20;59.10;;;;;;5089072;28;20289;-71
2021/08/29 05:57:54;;;;;;;3.13;2.10;;;22.20;59.20;;;;;;5104506;28;20558;-71
2021/08/29 06:00:27;;;;;;;3.30;2.13;;;22.20;59.10;;;;;;5108531;28;20207;-71
2021/08/29 06:03:00;;;;;;;4.17;2.47;;;22.20;59.10;;;;;;5104608;28;20266;-71
2021/08/29 06:05:32;;;;;;;2.60;2.10;;;22.20;59.10;;;;;;5103696;28;20216;-71
2021/08/29 06:08:08;;;;;;;2.73;2.10;;;22.20;59.10;;;;;;5087143;28;20579;-71
2021/08/29 06:10:40;;;;;;;3.43;2.30;;;22.20;59.10;;;;;;5106915;27;20196;-71
2021/08/29 06:13:09;;;;;;;4.07;2.50;;;22.20;59.10;;;;;;5103701;28;20197;-71
2021/08/29 06:15:38;;;;;;;3.07;2.23;;;22.20;59.10;;;;;;5087692;28;20571;-71
2021/08/29 06:18:10;;;;;;;2.60;2.33;;;22.20;59.00;;;;;;5092485;28;20227;-71
2021/08/29 06:20:40;;;;;;;4.03;2.43;;;22.20;59.00;;;;;;5070721;28;20211;-71
2021/08/29 06:23:12;;;;;;;3.20;2.20;;;22.20;59.00;;;;;;5109333;28;20215;-71
2021/08/29 06:25:43;;;;;;;3.10;2.30;;;22.20;59.00;;;;;;5089176;28;20545;-71
2021/08/29 06:28:13;;;;;;;3.33;2.23;;;22.20;59.00;;;;;;5110147;28;20208;-71
2021/08/29 06:30:42;;;;;;;3.13;2.40;;;22.10;58.90;;;;;;5095799;27;20199;-71
2021/08/29 06:33:17;;;;;;;2.83;2.23;;;22.20;58.90;;;;;;5105389;28;20247;-71
2021/08/29 06:35:46;;;;;;;3.37;2.50;;;22.20;58.90;;;;;;5100269;28;20228;-71
2021/08/29 06:38:17;;;;;;;3.00;2.30;;;22.20;58.90;;;;;;5080949;28;20213;-71
2021/08/29 06:40:49;;;;;;;3.00;2.40;;;22.30;59.40;;;;;;5096263;28;20258;-71
2021/08/29 06:43:20;;;;;;;3.77;2.60;;;22.20;58.90;;;;;;5103703;28;20208;-70
2021/08/29 06:45:50;;;;;;;2.13;1.93;;;22.20;58.90;;;;;;5108761;28;20214;-70
2021/08/29 06:48:19;;;;;;;4.30;2.50;;;22.30;58.90;;;;;;5104398;28;20205;-70
2021/08/29 06:50:50;;;;;;;3.17;2.57;;;22.20;58.90;;;;;;5104175;28;20597;-70
2021/08/29 06:53:18;;;;;;;3.33;2.30;;;22.30;58.90;;;;;;5087445;28;20199;-70
2021/08/29 06:55:53;;;;;;;3.70;2.63;;;22.30;58.90;;;;;;5091658;28;20203;-70
2021/08/29 06:58:26;;;;;;;2.63;2.43;;;22.30;58.90;;;;;;5086036;28;20245;-71
2021/08/29 07:01:00;;;;;;;2.37;1.97;;;22.20;58.80;;;;;;5099235;28;20211;-71
2021/08/29 07:03:32;;;;;;;3.17;2.30;;;22.20;58.90;;;;;;5106708;28;20613;-71
2021/08/29 07:06:09;;;;;;;2.57;2.30;;;22.30;58.90;;;;;;5073600;28;20666;-70
2021/08/29 07:08:38;;;;;;;3.77;2.20;;;22.20;59.00;;;;;;5102630;28;20200;-70
2021/08/29 07:11:09;;;;;;;3.47;2.50;;;22.20;59.00;;;;;;5106657;28;20677;-70
2021/08/29 07:13:38;;;;;;;4.73;2.70;;;22.20;58.90;;;;;;5087411;28;20200;-70
2021/08/29 07:16:10;;;;;;;4.00;2.30;;;22.30;58.90;;;;;;5105371;28;20192;-70
2021/08/29 07:18:43;;;;;;;3.93;2.43;;;22.20;58.90;;;;;;5093764;28;20653;-70
2021/08/29 07:21:13;;;;;;;4.43;2.50;;;22.20;58.90;;;;;;5087278;28;20200;-71
2021/08/29 07:23:45;;;;;;;2.60;2.17;;;22.20;58.90;;;;;;5102381;28;20204;-70
2021/08/29 07:26:14;;;;;;;2.50;2.30;;;22.20;58.90;;;;;;5102518;28;20289;-70
2021/08/29 07:28:44;;;;;;;4.27;2.30;;;22.30;58.90;;;;;;5095655;28;20322;-70
2021/08/29 07:31:14;;;;;;;3.17;2.40;;;22.20;58.90;;;;;;5105165;28;20196;-70
2021/08/29 07:33:45;;;;;;;2.97;2.17;;;22.20;59.00;;;;;;5089307;28;20244;-71
2021/08/29 07:36:17;;;;;;;3.40;2.40;;;22.30;59.30;;;;;;5102707;28;20245;-70
2021/08/29 07:38:47;;;;;;;3.37;2.40;;;22.20;59.10;;;;;;5108852;28;20204;-71
2021/08/29 07:41:29;;;;;;;4.10;2.50;;;22.20;59.10;;;;;;5103991;28;20283;-70
2021/08/29 07:44:01;;;;;;;2.27;2.07;;;22.20;59.20;;;;;;5102122;28;20216;-70
2021/08/29 07:46:33;;;;;;;2.97;2.27;;;22.20;59.20;;;;;;5106960;28;20254;-70
2021/08/29 07:49:02;;;;;;;4.27;2.40;;;22.30;59.30;;;;;;5108172;28;20804;-70
2021/08/29 07:51:33;;;;;;;2.63;2.13;;;22.30;59.40;;;;;;5090357;28;20627;-70
2021/08/29 07:54:04;;;;;;;5.80;2.70;;;22.20;59.40;;;;;;5088494;28;20204;-70
2021/08/29 07:56:34;;;;;;;4.27;2.63;;;22.20;59.40;;;;;;5093389;28;20193;-70
2021/08/29 07:59:07;;;;;;;3.57;2.40;;;22.30;59.50;;;;;;5107056;28;20199;-70
2021/08/29 08:01:39;;;;;;;2.73;2.47;;;22.30;59.50;;;;;;5076301;28;20201;-70
2021/08/29 08:04:12;;;;;;;3.63;2.23;;;22.20;59.40;;;;;;5091094;28;20197;-70
2021/08/29 08:06:46;;;;;;;3.70;2.53;;;22.20;59.40;;;;;;5089254;28;20669;-70
2021/08/29 08:09:18;;;;;;;3.73;2.37;;;22.30;59.40;;;;;;5106318;28;20200;-69
2021/08/29 08:11:51;;;;;;;3.40;2.43;;;22.30;59.40;;;;;;5106755;28;20200;-69
2021/08/29 08:14:22;;;;;;;4.23;2.73;;;22.30;59.40;;;;;;5108423;28;20192;-69
2021/08/29 08:16:54;;;;;;;5.77;2.80;;;22.30;59.40;;;;;;5089356;28;20212;-69
2021/08/29 08:19:24;;;;;;;4.83;2.50;;;22.30;59.50;;;;;;5107528;28;20716;-69
2021/08/29 08:21:56;;;;;;;3.80;2.33;;;22.30;59.40;;;;;;5105506;28;20209;-69
2021/08/29 08:24:27;;;;;;;5.20;2.40;;;22.30;59.40;;;;;;5111001;28;20821;-69
2021/08/29 08:26:59;;;;;;;3.60;2.47;;;22.30;59.40;;;;;;5105728;28;20229;-69
2021/08/29 08:29:29;;;;;;;3.97;2.60;;;22.30;59.30;;;;;;5107200;28;20651;-69
2021/08/29 08:31:56;;;;;;;5.27;2.57;;;22.30;59.40;;;;;;5088821;28;20215;-69
2021/08/29 08:34:25;;;;;;;6.53;3.90;;;22.30;59.40;;;;;;5066410;28;20713;-69
2021/08/29 08:36:54;;;;;;;6.03;3.20;;;22.30;59.50;;;;;;5065621;28;20267;-69
2021/08/29 08:39:24;;;;;;;5.53;3.80;;;22.30;59.50;;;;;;5078643;28;20401;-69
2021/08/29 08:41:55;;;;;;;4.40;3.43;;;22.30;59.40;;;;;;5084440;28;20251;-69
2021/08/29 08:44:32;;;;;;;5.73;3.00;;;22.30;59.50;;;;;;5081981;28;20596;-69
2021/08/29 08:47:07;;;;;;;4.70;3.60;;;22.30;60.10;;;;;;5056687;28;20234;-69
2021/08/29 08:49:40;;;;;;;4.70;3.10;;;22.30;59.40;;;;;;5053254;28;20205;-69
2021/08/29 08:52:26;;;;;;;4.83;3.10;;;22.30;59.50;;;;;;5062025;28;20209;-69
2021/08/29 08:55:05;;;;;;;4.90;3.07;;;22.30;59.40;;;;;;5065151;28;20661;-69
2021/08/29 08:57:42;;;;;;;4.23;2.87;;;22.30;59.40;;;;;;5087487;28;20197;-69
2021/08/29 09:00:11;;;;;;;4.30;2.77;;;22.30;59.40;;;;;;5086971;28;21523;-71
2021/08/29 09:02:46;;;;;;;6.83;3.27;;;22.30;59.40;;;;;;5073967;28;20189;-69
2021/08/29 09:05:18;;;;;;;5.73;3.40;;;22.30;59.60;;;;;;5089552;28;20953;-69
2021/08/29 09:07:54;;;;;;;11.77;3.50;;;22.30;59.80;;;;;;5063756;28;20284;-69
2021/08/29 09:10:23;;;;;;;13.10;3.17;;;22.30;60.20;;;;;;5055155;28;20186;-67
2021/08/29 09:13:06;;;;;;;9.87;2.90;;;22.30;60.10;;;;;;5065260;28;20212;-67
2021/08/29 09:15:34;;;;;;;6.43;3.03;;;22.40;60.50;;;;;;5080373;28;20189;-68
2021/08/29 09:18:05;;;;;;;12.57;2.60;;;22.40;60.60;;;;;;5077658;28;20510;-68
2021/08/29 09:20:39;;;;;;;5.70;2.30;;;22.40;60.70;;;;;;5075158;28;20212;-66
2021/08/29 09:23:14;;;;;;;9.53;2.90;;;22.40;60.70;;;;;;5066869;28;20853;-68
2021/08/29 09:25:47;;;;;;;5.77;2.70;;;22.40;60.90;;;;;;5064227;28;20208;-68
2021/08/29 09:28:24;;;;;;;4.50;2.33;;;22.40;60.80;;;;;;5087295;28;20205;-67
2021/08/29 09:31:02;;;;;;;6.87;2.40;;;22.40;61.20;;;;;;5059594;28;20205;-67
2021/08/29 09:33:38;;;;;;;5.13;2.33;;;22.40;61.30;;;;;;5084047;28;20236;-67
2021/08/29 09:36:10;;;;;;;4.93;2.23;;;22.40;61.70;;;;;;5053911;28;20741;-67
2021/08/29 09:38:43;;;;;;;6.43;2.33;;;22.50;62.00;;;;;;5069814;28;20644;-68
2021/08/29 09:41:26;;;;;;;5.47;2.43;;;22.50;62.20;;;;;;5091490;28;20224;-69
2021/08/29 09:44:15;;;;;;;6.07;2.57;;;22.50;62.40;;;;;;5074166;28;20190;-67
2021/08/29 09:47:05;;;;;;;4.07;1.97;;;22.60;62.80;;;;;;5078291;28;20226;-67
2021/08/29 09:49:36;;;;;;;5.70;2.50;;;22.50;62.80;;;;;;5081473;28;20228;-67
2021/08/29 09:52:07;;;;;;;7.50;2.40;;;22.60;63.10;;;;;;5063473;28;20209;-66
2021/08/29 09:54:44;;;;;;;4.27;2.13;;;22.60;63.30;;;;;;5070450;28;20208;-66
2021/08/29 09:57:13;;;;;;;4.87;2.43;;;22.70;63.30;;;;;;5088735;28;20200;-67
2021/08/29 09:59:50;;;;;;;6.93;2.60;;;22.70;63.40;;;;;;5089239;28;20197;-67
2021/08/29 10:02:31;;;;;;;6.50;2.60;;;22.70;63.50;;;;;;5066827;28;20953;-67
2021/08/29 10:05:19;;;;;;;7.97;2.60;;;22.70;63.50;;;;;;5067906;28;20221;-67
2021/08/29 10:08:09;;;;;;;6.93;2.70;;;22.70;63.50;;;;;;5087568;28;20216;-67
2021/08/29 10:10:40;;;;;;;8.20;2.83;;;22.80;63.50;;;;;;5088324;28;20200;-67
2021/08/29 10:13:13;;;;;;;5.90;2.93;;;22.80;63.50;;;;;;5061382;28;20319;-66
2021/08/29 10:15:50;;;;;;;9.20;3.43;;;22.80;63.40;;;;;;5089128;28;20217;-66
2021/08/29 10:18:21;;;;;;;11.27;2.93;;;22.80;63.30;;;;;;5086197;28;20278;-66
2021/08/29 10:20:53;;;;;;;9.33;3.43;;;22.80;63.30;;;;;;5085539;28;20200;-67
2021/08/29 10:23:27;;;;;;;8.30;2.70;;;22.80;63.20;;;;;;5077694;28;20666;-66
2021/08/29 10:26:02;;;;;;;5.93;2.67;;;22.90;63.00;;;;;;5082251;28;20592;-65
2021/08/29 10:28:42;;;;;;;6.97;3.20;;;22.90;62.80;;;;;;5071289;28;20688;-66
2021/08/29 10:31:28;;;;;;;8.93;3.30;;;22.90;62.60;;;;;;5062966;28;20208;-66
2021/08/29 10:34:01;;;;;;;8.10;3.30;;;22.90;62.40;;;;;;5102205;28;20280;-66
2021/08/29 10:36:32;;;;;;;6.07;2.97;;;23.00;62.40;;;;;;5072876;28;20205;-66
2021/08/29 10:39:05;;;;;;;8.03;3.57;;;22.90;62.30;;;;;;5055660;28;20313;-65
2021/08/29 10:41:46;;;;;;;5.47;2.87;;;23.00;62.20;;;;;;5087677;28;20207;-65
2021/08/29 10:44:18;;;;;;;5.63;2.80;;;23.00;62.10;;;;;;5061406;28;20204;-65
2021/08/29 10:46:53;;;;;;;7.27;2.73;;;23.00;62.00;;;;;;5057492;28;20213;-66
2021/08/29 10:49:26;;;;;;;4.47;2.80;;;23.00;62.00;;;;;;5087437;28;20200;-67
2021/08/29 10:51:57;;;;;;;6.27;2.40;;;23.00;61.90;;;;;;5066801;28;20240;-68
2021/08/29 10:54:37;;;;;;;6.57;3.00;;;23.00;61.90;;;;;;5087307;28;20204;-67
2021/08/29 10:57:32;;;;;;;12.37;3.60;;;23.10;62.50;;;;;;5087908;28;20320;-68
2021/08/29 11:00:27;;;;;;;7.73;3.00;;;23.10;63.20;;;;;;5091328;28;20192;-66
2021/08/29 11:02:58;;;;;;;6.40;2.60;;;23.10;63.70;;;;;;5088467;28;20850;-67
2021/08/29 11:05:35;;;;;;;6.03;2.63;;;23.10;63.10;;;;;;5089708;28;20212;-67
2021/08/29 11:08:28;;;;;;;5.63;2.50;;;23.10;62.10;;;;;;5088169;28;20292;-67
2021/08/29 11:11:05;;;;;;;10.57;3.00;;;23.10;62.30;;;;;;5093756;28;20237;-67
2021/08/29 11:13:39;;;;;;;8.43;3.23;;;23.00;62.00;;;;;;5071502;28;20205;-67
2021/08/29 11:16:22;;;;;;;6.53;2.57;;;23.10;62.00;;;;;;5088955;28;20192;-67
2021/08/29 11:19:06;;;;;;;5.37;2.73;;;23.00;62.20;;;;;;5077058;28;20678;-68
2021/08/29 11:21:36;;;;;;;6.87;2.40;;;23.10;64.70;;;;;;5085349;28;20607;-66
2021/08/29 11:24:09;;;;;;;6.03;2.40;;;23.10;64.90;;;;;;5085600;28;20220;-70
2021/08/29 11:26:45;;;;;;;15.30;2.83;;;23.20;64.80;;;;;;5056339;28;20247;-66
2021/08/29 11:29:42;;;;;;;6.67;2.10;;;23.20;64.60;;;;;;5063143;28;20186;-65
2021/08/29 11:32:40;;;;;;;7.93;2.60;;;23.30;64.20;;;;;;5077997;28;20258;-67
2021/08/29 11:35:53;;;;;;;8.03;2.53;;;23.40;64.20;;;;;;5048865;28;20252;-67
2021/08/29 11:38:51;;;;;;;9.57;2.97;;;23.40;63.60;;;;;;5051986;28;20712;-66
2021/08/29 11:41:33;;;;;;;10.13;3.80;;;23.40;63.30;;;;;;5073510;28;20689;-65
2021/08/29 11:44:17;;;;;;;14.30;4.27;;;23.40;64.20;;;;;;5090695;28;20204;-66
2021/08/29 11:46:58;;;;;;;11.63;4.13;;;23.40;64.00;;;;;;5059881;28;20250;-65
2021/08/29 11:49:29;;;;;;;9.07;3.27;;;23.50;64.00;;;;;;5088508;28;20200;-67
2021/08/29 11:51:57;;;;;;;6.10;3.00;;;23.50;63.80;;;;;;5080694;28;20834;-66
2021/08/29 11:54:29;;;;;;;5.23;2.73;;;23.40;63.00;;;;;;5075359;28;20182;-66
2021/08/29 11:56:59;;;;;;;5.13;2.53;;;23.10;63.30;;;;;;5086983;28;20201;-64
2021/08/29 11:59:34;;;;;;;5.63;2.53;;;23.00;63.60;;;;;;5057708;28;20233;-66
2021/08/29 12:02:10;;;;;;;3.90;2.50;;;23.00;64.00;;;;;;5066479;28;20201;-66
2021/08/29 12:04:42;;;;;;;6.23;2.67;;;22.90;63.80;;;;;;5063555;28;20200;-66
2021/08/29 12:07:13;;;;;;;4.20;2.60;;;22.70;64.10;;;;;;5088195;28;20220;-68
2021/08/29 12:09:52;;;;;;;5.17;2.57;;;22.60;64.50;;;;;;5058196;28;20186;-65
2021/08/29 12:12:28;;;;;;;3.50;2.20;;;22.50;64.50;;;;;;5087467;28;20619;-66
2021/08/29 12:15:02;;;;;;;4.53;2.70;;;22.40;64.60;;;;;;5083583;28;20247;-67
2021/08/29 12:17:38;;;;;;;5.03;2.57;;;22.50;65.20;;;;;;5070017;28;20201;-67
2021/08/29 12:20:21;;;;;;;4.27;2.20;;;22.60;65.10;;;;;;5076715;28;20658;-66
2021/08/29 12:22:52;;;;;;;3.67;2.10;;;22.60;64.90;;;;;;5070202;28;20586;-66
2021/08/29 12:25:27;;;;;;;7.20;2.57;;;22.60;64.80;;;;;;5090686;28;20205;-66
2021/08/29 12:28:07;;;;;;;6.17;2.33;;;22.50;65.10;;;;;;5086733;28;20240;-66
2021/08/29 12:30:37;;;;;;;6.60;2.80;;;22.50;64.80;;;;;;5073271;28;20209;-68
2021/08/29 12:33:15;;;;;;;7.57;3.00;;;22.50;65.10;;;;;;5074334;28;20696;-66
2021/08/29 12:35:47;;;;;;;6.03;2.73;;;22.40;64.90;;;;;;5094165;28;20633;-69
2021/08/29 12:38:30;;;;;;;8.37;3.20;;;22.30;65.30;;;;;;5105973;28;20207;-68
2021/08/29 12:41:00;;;;;;;6.13;2.53;;;22.20;65.70;;;;;;5072244;28;20210;-69
2021/08/29 12:43:31;;;;;;;4.83;2.43;;;22.10;66.20;;;;;;5091558;28;20192;-67
2021/08/29 12:46:06;;;;;;;4.73;2.47;;;22.10;66.40;;;;;;5092042;28;20300;-67
2021/08/29 12:48:39;;;;;;;4.60;2.30;;;22.10;66.80;;;;;;5110991;28;20250;-67
2021/08/29 12:51:10;;;;;;;6.07;2.53;;;22.20;66.70;;;;;;5108746;28;20207;-67
2021/08/29 12:53:41;;;;;;;5.43;2.53;;;22.20;67.50;;;;;;5089859;28;20708;-68
2021/08/29 12:56:20;;;;;;;6.57;2.23;;;22.30;67.10;;;;;;5075102;28;20261;-67
2021/08/29 12:58:50;;;;;;;6.50;2.47;;;22.40;67.20;;;;;;5107678;28;20210;-67
2021/08/29 13:01:19;;;;;;;4.47;1.60;;;22.50;66.90;;;;;;5096910;28;20193;-66
2021/08/29 13:03:53;;;;;;;4.70;2.00;;;22.60;66.60;;;;;;5084547;28;20204;-66
2021/08/29 13:06:25;;;;;;;6.57;2.20;;;22.70;66.80;;;;;;5084356;28;20200;-66
2021/08/29 13:09:06;;;;;;;6.07;2.10;;;22.80;66.80;;;;;;5102200;28;20227;-66
2021/08/29 13:11:44;;;;;;;5.70;1.97;;;22.80;67.30;;;;;;5104679;28;20193;-66
2021/08/29 13:14:26;;;;;;;6.50;2.17;;;22.90;67.50;;;;;;5102459;28;20203;-67
2021/08/29 13:17:12;;;;;;;5.90;2.17;;;23.00;67.80;;;;;;5106464;27;20208;-66
2021/08/29 13:19:58;;;;;;;5.13;2.03;;;23.00;68.10;;;;;;5066362;28;20622;-66
2021/08/29 13:22:40;;;;;;;5.83;1.87;;;23.10;68.00;;;;;;5101870;28;20208;-66